< < Back
Terminal Aerodrome Forecast


Current Version              Previous Versions:   1  2  3  4  5  6  7  8  9  

Terminal Aerodrome Forecast

848
FTUS44 KBMX 302356 CCA
TAFTCL
TAF COR
KTCL 302356Z 0100/0124 19006KT P6SM VCSH SCT025 BKN040
     FM010400 15005KT P6SM BKN090
     FM010900 18005KT P6SM VCSH OVC015
     FM011500 19006KT P6SM SHRA VCTS OVC040CB=

Latest METAR

427
SAUS70 KWBC 011500 RRS
MTRTCL
METAR KTCL 011453Z 20005KT 7SM OVC009 22/21 A2999 RMK AO2 CIG 008V013
SLP151 T02220206 51008


USA.gov is the U.S. government's official web portal to all federal, state and local government web resources and services.